sensor_id;sensor_type;location;lat;lon;timestamp;P1;durP1;ratioP1;P2;durP2;ratioP2
49776;SDS011;35673;51.482;7.436;2022-08-19T00:02:02;11.90;;;10.10;;
49776;SDS011;35673;51.482;7.436;2022-08-19T00:04:30;10.75;;;9.70;;
49776;SDS011;35673;51.482;7.436;2022-08-19T00:06:59;11.95;;;10.73;;
49776;SDS011;35673;51.482;7.436;2022-08-19T00:09:25;11.38;;;9.95;;
49776;SDS011;35673;51.482;7.436;2022-08-19T00:11:51;12.75;;;9.93;;
49776;SDS011;35673;51.482;7.436;2022-08-19T00:14:20;10.90;;;9.75;;
49776;SDS011;35673;51.482;7.436;2022-08-19T00:16:47;10.88;;;9.70;;
49776;SDS011;35673;51.482;7.436;2022-08-19T00:19:14;10.07;;;9.07;;
49776;SDS011;35673;51.482;7.436;2022-08-19T00:21:40;10.80;;;9.52;;
49776;SDS011;35673;51.482;7.436;2022-08-19T00:24:07;13.32;;;9.55;;
49776;SDS011;35673;51.482;7.436;2022-08-19T00:26:34;10.48;;;9.35;;
49776;SDS011;35673;51.482;7.436;2022-08-19T00:29:02;12.00;;;10.27;;
49776;SDS011;35673;51.482;7.436;2022-08-19T00:31:29;9.60;;;8.70;;
49776;SDS011;35673;51.482;7.436;2022-08-19T00:33:56;13.02;;;10.50;;
49776;SDS011;35673;51.482;7.436;2022-08-19T00:36:22;10.07;;;9.07;;
49776;SDS011;35673;51.482;7.436;2022-08-19T00:38:47;9.52;;;8.63;;
49776;SDS011;35673;51.482;7.436;2022-08-19T00:41:15;11.85;;;9.23;;
49776;SDS011;35673;51.482;7.436;2022-08-19T00:43:55;9.77;;;8.77;;
49776;SDS011;35673;51.482;7.436;2022-08-19T00:46:26;17.75;;;8.68;;
49776;SDS011;35673;51.482;7.436;2022-08-19T00:48:52;9.50;;;8.60;;
49776;SDS011;35673;51.482;7.436;2022-08-19T00:51:19;10.18;;;9.15;;
49776;SDS011;35673;51.482;7.436;2022-08-19T00:53:45;10.50;;;8.68;;
49776;SDS011;35673;51.482;7.436;2022-08-19T00:56:10;9.93;;;8.32;;
49776;SDS011;35673;51.482;7.436;2022-08-19T00:58:36;9.15;;;8.25;;
49776;SDS011;35673;51.482;7.436;2022-08-19T01:01:03;8.80;;;7.85;;
49776;SDS011;35673;51.482;7.436;2022-08-19T01:03:29;9.48;;;8.48;;
49776;SDS011;35673;51.482;7.436;2022-08-19T01:05:55;10.88;;;8.55;;
49776;SDS011;35673;51.482;7.436;2022-08-19T01:08:21;13.32;;;8.50;;
49776;SDS011;35673;51.482;7.436;2022-08-19T01:10:52;9.88;;;8.88;;
49776;SDS011;35673;51.482;7.436;2022-08-19T01:13:20;9.40;;;8.48;;
49776;SDS011;35673;51.482;7.436;2022-08-19T01:15:50;10.25;;;9.25;;
49776;SDS011;35673;51.482;7.436;2022-08-19T01:18:19;11.68;;;9.27;;
49776;SDS011;35673;51.482;7.436;2022-08-19T01:20:47;10.02;;;9.02;;
49776;SDS011;35673;51.482;7.436;2022-08-19T01:23:13;9.68;;;8.77;;
49776;SDS011;35673;51.482;7.436;2022-08-19T01:28:19;9.73;;;8.70;;
49776;SDS011;35673;51.482;7.436;2022-08-19T01:30:50;9.68;;;8.77;;
49776;SDS011;35673;51.482;7.436;2022-08-19T01:33:16;9.90;;;8.45;;
49776;SDS011;35673;51.482;7.436;2022-08-19T01:35:42;9.73;;;8.68;;
49776;SDS011;35673;51.482;7.436;2022-08-19T01:38:10;9.30;;;8.38;;
49776;SDS011;35673;51.482;7.436;2022-08-19T01:40:44;9.60;;;7.90;;
49776;SDS011;35673;51.482;7.436;2022-08-19T01:43:10;11.60;;;9.18;;
49776;SDS011;35673;51.482;7.436;2022-08-19T01:45:35;9.85;;;8.85;;
49776;SDS011;35673;51.482;7.436;2022-08-19T01:48:02;10.25;;;8.15;;
49776;SDS011;35673;51.482;7.436;2022-08-19T01:50:30;10.60;;;9.13;;
49776;SDS011;35673;51.482;7.436;2022-08-19T01:52:56;8.57;;;7.68;;
49776;SDS011;35673;51.482;7.436;2022-08-19T01:55:21;8.98;;;8.13;;
49776;SDS011;35673;51.482;7.436;2022-08-19T01:57:50;10.18;;;8.65;;
49776;SDS011;35673;51.482;7.436;2022-08-19T02:00:19;10.07;;;8.50;;
49776;SDS011;35673;51.482;7.436;2022-08-19T02:02:47;11.10;;;9.00;;
49776;SDS011;35673;51.482;7.436;2022-08-19T02:05:13;9.63;;;8.73;;
49776;SDS011;35673;51.482;7.436;2022-08-19T02:07:39;9.48;;;8.57;;
49776;SDS011;35673;51.482;7.436;2022-08-19T02:10:07;9.20;;;8.15;;
49776;SDS011;35673;51.482;7.436;2022-08-19T02:12:35;8.55;;;7.75;;
49776;SDS011;35673;51.482;7.436;2022-08-19T02:15:01;8.48;;;7.63;;
49776;SDS011;35673;51.482;7.436;2022-08-19T02:17:27;9.60;;;8.32;;
49776;SDS011;35673;51.482;7.436;2022-08-19T02:19:54;10.80;;;8.50;;
49776;SDS011;35673;51.482;7.436;2022-08-19T02:22:20;9.70;;;8.32;;
49776;SDS011;35673;51.482;7.436;2022-08-19T02:24:46;12.52;;;8.70;;
49776;SDS011;35673;51.482;7.436;2022-08-19T02:27:13;10.70;;;9.60;;
49776;SDS011;35673;51.482;7.436;2022-08-19T02:29:39;11.18;;;9.63;;
49776;SDS011;35673;51.482;7.436;2022-08-19T02:32:04;10.20;;;9.18;;
49776;SDS011;35673;51.482;7.436;2022-08-19T02:34:30;11.00;;;9.68;;
49776;SDS011;35673;51.482;7.436;2022-08-19T02:36:56;9.35;;;8.45;;
49776;SDS011;35673;51.482;7.436;2022-08-19T02:39:21;10.32;;;9.23;;
49776;SDS011;35673;51.482;7.436;2022-08-19T02:41:47;10.23;;;8.52;;
49776;SDS011;35673;51.482;7.436;2022-08-19T02:44:14;11.73;;;8.10;;
49776;SDS011;35673;51.482;7.436;2022-08-19T02:46:39;10.13;;;8.65;;
49776;SDS011;35673;51.482;7.436;2022-08-19T02:49:06;10.45;;;9.23;;
49776;SDS011;35673;51.482;7.436;2022-08-19T02:51:33;11.05;;;8.65;;
49776;SDS011;35673;51.482;7.436;2022-08-19T02:54:04;10.40;;;9.30;;
49776;SDS011;35673;51.482;7.436;2022-08-19T02:56:31;10.38;;;8.90;;
49776;SDS011;35673;51.482;7.436;2022-08-19T02:59:02;10.73;;;8.35;;
49776;SDS011;35673;51.482;7.436;2022-08-19T03:01:34;9.88;;;8.07;;
49776;SDS011;35673;51.482;7.436;2022-08-19T03:04:00;10.57;;;8.48;;
49776;SDS011;35673;51.482;7.436;2022-08-19T03:06:28;9.55;;;8.25;;
49776;SDS011;35673;51.482;7.436;2022-08-19T03:08:54;8.75;;;7.65;;
49776;SDS011;35673;51.482;7.436;2022-08-19T03:11:21;8.02;;;7.28;;
49776;SDS011;35673;51.482;7.436;2022-08-19T03:13:49;8.98;;;8.07;;
49776;SDS011;35673;51.482;7.436;2022-08-19T03:16:16;9.23;;;8.13;;
49776;SDS011;35673;51.482;7.436;2022-08-19T03:18:43;11.18;;;8.55;;
49776;SDS011;35673;51.482;7.436;2022-08-19T03:21:08;8.77;;;7.88;;
49776;SDS011;35673;51.482;7.436;2022-08-19T03:23:34;9.40;;;7.93;;
49776;SDS011;35673;51.482;7.436;2022-08-19T03:26:04;8.85;;;8.05;;
49776;SDS011;35673;51.482;7.436;2022-08-19T03:28:31;11.82;;;8.80;;
49776;SDS011;35673;51.482;7.436;2022-08-19T03:30:59;13.18;;;10.68;;
49776;SDS011;35673;51.482;7.436;2022-08-19T03:33:29;10.55;;;8.93;;
49776;SDS011;35673;51.482;7.436;2022-08-19T03:36:03;10.40;;;9.38;;
49776;SDS011;35673;51.482;7.436;2022-08-19T03:38:33;10.80;;;9.57;;
49776;SDS011;35673;51.482;7.436;2022-08-19T03:41:08;11.02;;;9.88;;
49776;SDS011;35673;51.482;7.436;2022-08-19T03:43:37;10.30;;;9.27;;
49776;SDS011;35673;51.482;7.436;2022-08-19T03:46:05;13.90;;;9.98;;
49776;SDS011;35673;51.482;7.436;2022-08-19T03:48:36;12.45;;;9.35;;
49776;SDS011;35673;51.482;7.436;2022-08-19T03:51:03;11.40;;;9.70;;
49776;SDS011;35673;51.482;7.436;2022-08-19T03:53:29;11.38;;;9.82;;
49776;SDS011;35673;51.482;7.436;2022-08-19T03:55:56;11.23;;;9.93;;
49776;SDS011;35673;51.482;7.436;2022-08-19T03:58:25;12.05;;;8.70;;
49776;SDS011;35673;51.482;7.436;2022-08-19T04:00:53;11.82;;;9.27;;
49776;SDS011;35673;51.482;7.436;2022-08-19T04:03:21;9.98;;;8.82;;
49776;SDS011;35673;51.482;7.436;2022-08-19T04:05:48;15.57;;;10.18;;
49776;SDS011;35673;51.482;7.436;2022-08-19T04:08:14;12.05;;;9.30;;
49776;SDS011;35673;51.482;7.436;2022-08-19T04:10:45;11.98;;;9.93;;
49776;SDS011;35673;51.482;7.436;2022-08-19T04:13:15;14.18;;;9.63;;
49776;SDS011;35673;51.482;7.436;2022-08-19T04:15:42;19.25;;;11.10;;
49776;SDS011;35673;51.482;7.436;2022-08-19T04:18:09;10.10;;;9.10;;
49776;SDS011;35673;51.482;7.436;2022-08-19T04:20:45;10.77;;;9.68;;
49776;SDS011;35673;51.482;7.436;2022-08-19T04:23:12;13.68;;;9.93;;
49776;SDS011;35673;51.482;7.436;2022-08-19T04:25:42;11.07;;;9.68;;
49776;SDS011;35673;51.482;7.436;2022-08-19T04:28:09;12.73;;;10.52;;
49776;SDS011;35673;51.482;7.436;2022-08-19T04:30:38;12.68;;;10.50;;
49776;SDS011;35673;51.482;7.436;2022-08-19T04:33:07;12.93;;;11.43;;
49776;SDS011;35673;51.482;7.436;2022-08-19T04:35:37;13.35;;;9.95;;
49776;SDS011;35673;51.482;7.436;2022-08-19T04:38:04;12.43;;;11.07;;
49776;SDS011;35673;51.482;7.436;2022-08-19T04:40:30;12.77;;;9.27;;
49776;SDS011;35673;51.482;7.436;2022-08-19T04:43:15;11.82;;;9.07;;
49776;SDS011;35673;51.482;7.436;2022-08-19T04:45:44;10.30;;;9.30;;
49776;SDS011;35673;51.482;7.436;2022-08-19T04:48:11;11.65;;;10.02;;
49776;SDS011;35673;51.482;7.436;2022-08-19T04:50:41;14.20;;;11.18;;
49776;SDS011;35673;51.482;7.436;2022-08-19T04:53:08;14.85;;;12.38;;
49776;SDS011;35673;51.482;7.436;2022-08-19T04:55:34;15.15;;;11.18;;
49776;SDS011;35673;51.482;7.436;2022-08-19T04:58:03;15.85;;;12.20;;
49776;SDS011;35673;51.482;7.436;2022-08-19T05:00:29;14.02;;;12.52;;
49776;SDS011;35673;51.482;7.436;2022-08-19T05:02:55;16.67;;;12.15;;
49776;SDS011;35673;51.482;7.436;2022-08-19T05:05:20;12.95;;;10.93;;
49776;SDS011;35673;51.482;7.436;2022-08-19T05:07:46;19.73;;;11.77;;
49776;SDS011;35673;51.482;7.436;2022-08-19T05:10:12;13.27;;;11.77;;
49776;SDS011;35673;51.482;7.436;2022-08-19T05:12:38;14.23;;;12.30;;
49776;SDS011;35673;51.482;7.436;2022-08-19T05:15:05;14.73;;;11.40;;
49776;SDS011;35673;51.482;7.436;2022-08-19T05:17:33;15.50;;;11.77;;
49776;SDS011;35673;51.482;7.436;2022-08-19T05:19:59;12.70;;;11.07;;
49776;SDS011;35673;51.482;7.436;2022-08-19T05:22:43;14.52;;;10.52;;
49776;SDS011;35673;51.482;7.436;2022-08-19T05:25:12;18.63;;;11.73;;
49776;SDS011;35673;51.482;7.436;2022-08-19T05:27:44;15.48;;;11.25;;
49776;SDS011;35673;51.482;7.436;2022-08-19T05:30:09;15.50;;;11.90;;
49776;SDS011;35673;51.482;7.436;2022-08-19T05:32:36;16.77;;;12.57;;
49776;SDS011;35673;51.482;7.436;2022-08-19T05:35:02;14.20;;;12.57;;
49776;SDS011;35673;51.482;7.436;2022-08-19T05:37:29;15.88;;;14.18;;
49776;SDS011;35673;51.482;7.436;2022-08-19T05:39:54;19.02;;;13.25;;
49776;SDS011;35673;51.482;7.436;2022-08-19T05:42:20;15.40;;;12.98;;
49776;SDS011;35673;51.482;7.436;2022-08-19T05:44:48;19.88;;;13.93;;
49776;SDS011;35673;51.482;7.436;2022-08-19T05:47:14;18.95;;;14.23;;
49776;SDS011;35673;51.482;7.436;2022-08-19T05:49:41;15.57;;;13.73;;
49776;SDS011;35673;51.482;7.436;2022-08-19T05:52:08;19.48;;;15.15;;
49776;SDS011;35673;51.482;7.436;2022-08-19T05:54:36;17.90;;;15.25;;
49776;SDS011;35673;51.482;7.436;2022-08-19T05:57:05;23.25;;;15.52;;
49776;SDS011;35673;51.482;7.436;2022-08-19T05:59:31;20.45;;;15.65;;
49776;SDS011;35673;51.482;7.436;2022-08-19T06:01:56;19.55;;;15.27;;
49776;SDS011;35673;51.482;7.436;2022-08-19T06:04:22;20.25;;;15.40;;
49776;SDS011;35673;51.482;7.436;2022-08-19T06:06:49;18.38;;;14.20;;
49776;SDS011;35673;51.482;7.436;2022-08-19T06:09:17;19.38;;;15.63;;
49776;SDS011;35673;51.482;7.436;2022-08-19T06:11:45;19.65;;;15.38;;
49776;SDS011;35673;51.482;7.436;2022-08-19T06:14:16;27.48;;;16.38;;
49776;SDS011;35673;51.482;7.436;2022-08-19T06:16:46;22.65;;;15.98;;
49776;SDS011;35673;51.482;7.436;2022-08-19T06:19:13;19.30;;;14.57;;
49776;SDS011;35673;51.482;7.436;2022-08-19T06:21:40;18.45;;;14.40;;
49776;SDS011;35673;51.482;7.436;2022-08-19T06:24:10;20.67;;;14.60;;
49776;SDS011;35673;51.482;7.436;2022-08-19T06:26:39;18.42;;;14.73;;
49776;SDS011;35673;51.482;7.436;2022-08-19T06:29:07;17.83;;;14.02;;
49776;SDS011;35673;51.482;7.436;2022-08-19T06:31:34;16.83;;;14.25;;
49776;SDS011;35673;51.482;7.436;2022-08-19T06:34:02;18.67;;;13.88;;
49776;SDS011;35673;51.482;7.436;2022-08-19T06:36:31;17.10;;;14.23;;
49776;SDS011;35673;51.482;7.436;2022-08-19T06:39:06;23.23;;;13.85;;
49776;SDS011;35673;51.482;7.436;2022-08-19T06:41:34;18.42;;;14.43;;
49776;SDS011;35673;51.482;7.436;2022-08-19T06:44:03;20.65;;;14.38;;
49776;SDS011;35673;51.482;7.436;2022-08-19T06:46:29;16.58;;;13.52;;
49776;SDS011;35673;51.482;7.436;2022-08-19T06:48:55;22.40;;;14.25;;
49776;SDS011;35673;51.482;7.436;2022-08-19T06:51:22;22.92;;;14.55;;
49776;SDS011;35673;51.482;7.436;2022-08-19T06:53:49;22.83;;;14.73;;
49776;SDS011;35673;51.482;7.436;2022-08-19T06:56:17;19.17;;;15.05;;
49776;SDS011;35673;51.482;7.436;2022-08-19T06:58:44;18.83;;;14.35;;
49776;SDS011;35673;51.482;7.436;2022-08-19T07:01:11;17.38;;;14.48;;
49776;SDS011;35673;51.482;7.436;2022-08-19T07:03:37;17.77;;;14.88;;
49776;SDS011;35673;51.482;7.436;2022-08-19T07:06:07;18.77;;;14.63;;
49776;SDS011;35673;51.482;7.436;2022-08-19T07:08:35;21.50;;;14.88;;
49776;SDS011;35673;51.482;7.436;2022-08-19T07:11:04;18.92;;;14.45;;
49776;SDS011;35673;51.482;7.436;2022-08-19T07:13:34;17.58;;;13.85;;
49776;SDS011;35673;51.482;7.436;2022-08-19T07:16:06;18.23;;;13.82;;
49776;SDS011;35673;51.482;7.436;2022-08-19T07:18:33;17.60;;;14.13;;
49776;SDS011;35673;51.482;7.436;2022-08-19T07:21:06;18.77;;;14.13;;
49776;SDS011;35673;51.482;7.436;2022-08-19T07:23:34;17.52;;;13.55;;
49776;SDS011;35673;51.482;7.436;2022-08-19T07:26:11;19.65;;;14.35;;
49776;SDS011;35673;51.482;7.436;2022-08-19T07:28:44;17.08;;;13.02;;
49776;SDS011;35673;51.482;7.436;2022-08-19T07:31:11;17.48;;;13.32;;
49776;SDS011;35673;51.482;7.436;2022-08-19T07:33:38;19.85;;;14.07;;
49776;SDS011;35673;51.482;7.436;2022-08-19T07:36:05;19.90;;;14.18;;
49776;SDS011;35673;51.482;7.436;2022-08-19T07:41:00;17.38;;;13.85;;
49776;SDS011;35673;51.482;7.436;2022-08-19T07:43:26;19.08;;;13.48;;
49776;SDS011;35673;51.482;7.436;2022-08-19T07:45:53;17.13;;;13.57;;
49776;SDS011;35673;51.482;7.436;2022-08-19T07:48:25;20.52;;;13.88;;
49776;SDS011;35673;51.482;7.436;2022-08-19T07:50:52;19.17;;;13.95;;
49776;SDS011;35673;51.482;7.436;2022-08-19T07:53:19;21.38;;;14.35;;
49776;SDS011;35673;51.482;7.436;2022-08-19T07:55:49;17.52;;;14.00;;
49776;SDS011;35673;51.482;7.436;2022-08-19T07:58:16;20.98;;;13.90;;
49776;SDS011;35673;51.482;7.436;2022-08-19T08:00:45;19.83;;;15.70;;
49776;SDS011;35673;51.482;7.436;2022-08-19T08:03:13;29.35;;;14.20;;
49776;SDS011;35673;51.482;7.436;2022-08-19T08:05:41;20.80;;;14.98;;
49776;SDS011;35673;51.482;7.436;2022-08-19T08:08:26;20.05;;;15.32;;
49776;SDS011;35673;51.482;7.436;2022-08-19T08:11:11;20.17;;;15.63;;
49776;SDS011;35673;51.482;7.436;2022-08-19T08:13:37;21.85;;;15.57;;
49776;SDS011;35673;51.482;7.436;2022-08-19T08:16:03;20.73;;;14.60;;
49776;SDS011;35673;51.482;7.436;2022-08-19T08:18:29;19.33;;;15.40;;
49776;SDS011;35673;51.482;7.436;2022-08-19T08:20:55;21.35;;;14.32;;
49776;SDS011;35673;51.482;7.436;2022-08-19T08:23:22;21.67;;;15.50;;
49776;SDS011;35673;51.482;7.436;2022-08-19T08:25:50;16.67;;;13.88;;
49776;SDS011;35673;51.482;7.436;2022-08-19T08:28:20;17.15;;;14.18;;
49776;SDS011;35673;51.482;7.436;2022-08-19T08:30:46;19.98;;;13.43;;
49776;SDS011;35673;51.482;7.436;2022-08-19T08:33:14;18.33;;;14.32;;
49776;SDS011;35673;51.482;7.436;2022-08-19T08:35:47;18.80;;;11.48;;
49776;SDS011;35673;51.482;7.436;2022-08-19T08:38:13;16.15;;;10.90;;
49776;SDS011;35673;51.482;7.436;2022-08-19T08:40:50;11.40;;;10.02;;
49776;SDS011;35673;51.482;7.436;2022-08-19T08:46:08;15.20;;;10.45;;
49776;SDS011;35673;51.482;7.436;2022-08-19T08:48:59;11.40;;;10.18;;
49776;SDS011;35673;51.482;7.436;2022-08-19T08:51:46;14.18;;;10.10;;
49776;SDS011;35673;51.482;7.436;2022-08-19T08:54:15;12.43;;;10.20;;
49776;SDS011;35673;51.482;7.436;2022-08-19T08:56:45;14.98;;;9.52;;
49776;SDS011;35673;51.482;7.436;2022-08-19T08:59:20;15.32;;;10.27;;
49776;SDS011;35673;51.482;7.436;2022-08-19T09:01:49;17.13;;;10.38;;
49776;SDS011;35673;51.482;7.436;2022-08-19T09:04:15;14.65;;;11.50;;
49776;SDS011;35673;51.482;7.436;2022-08-19T09:09:30;18.15;;;12.77;;
49776;SDS011;35673;51.482;7.436;2022-08-19T09:12:10;19.90;;;13.63;;
49776;SDS011;35673;51.482;7.436;2022-08-19T09:15:13;16.67;;;13.38;;
49776;SDS011;35673;51.482;7.436;2022-08-19T09:17:41;13.88;;;12.20;;
49776;SDS011;35673;51.482;7.436;2022-08-19T09:22:38;14.07;;;12.27;;
49776;SDS011;35673;51.482;7.436;2022-08-19T09:25:06;13.45;;;10.75;;
49776;SDS011;35673;51.482;7.436;2022-08-19T09:27:33;14.50;;;12.27;;
49776;SDS011;35673;51.482;7.436;2022-08-19T09:30:02;13.02;;;11.55;;
49776;SDS011;35673;51.482;7.436;2022-08-19T09:32:29;14.15;;;12.30;;
49776;SDS011;35673;51.482;7.436;2022-08-19T09:34:55;17.17;;;11.75;;
49776;SDS011;35673;51.482;7.436;2022-08-19T09:37:22;21.27;;;12.65;;
49776;SDS011;35673;51.482;7.436;2022-08-19T09:39:49;18.25;;;10.80;;
49776;SDS011;35673;51.482;7.436;2022-08-19T09:42:15;12.48;;;10.35;;
49776;SDS011;35673;51.482;7.436;2022-08-19T09:44:41;16.05;;;13.18;;
49776;SDS011;35673;51.482;7.436;2022-08-19T09:47:08;14.00;;;12.40;;
49776;SDS011;35673;51.482;7.436;2022-08-19T09:49:36;14.90;;;12.60;;
49776;SDS011;35673;51.482;7.436;2022-08-19T09:52:02;13.50;;;12.10;;
49776;SDS011;35673;51.482;7.436;2022-08-19T09:54:28;17.05;;;13.10;;
49776;SDS011;35673;51.482;7.436;2022-08-19T09:56:54;19.10;;;15.38;;
49776;SDS011;35673;51.482;7.436;2022-08-19T09:59:22;17.38;;;13.57;;
49776;SDS011;35673;51.482;7.436;2022-08-19T10:01:48;21.75;;;16.05;;
49776;SDS011;35673;51.482;7.436;2022-08-19T10:04:13;25.27;;;19.08;;
49776;SDS011;35673;51.482;7.436;2022-08-19T10:06:39;21.67;;;19.42;;
49776;SDS011;35673;51.482;7.436;2022-08-19T10:09:08;26.27;;;23.25;;
49776;SDS011;35673;51.482;7.436;2022-08-19T10:11:36;25.98;;;23.35;;
49776;SDS011;35673;51.482;7.436;2022-08-19T10:14:04;28.90;;;24.88;;
49776;SDS011;35673;51.482;7.436;2022-08-19T10:16:30;26.55;;;23.75;;
49776;SDS011;35673;51.482;7.436;2022-08-19T10:18:57;26.75;;;16.55;;
49776;SDS011;35673;51.482;7.436;2022-08-19T10:21:25;16.92;;;15.13;;
49776;SDS011;35673;51.482;7.436;2022-08-19T10:23:54;15.43;;;13.63;;
49776;SDS011;35673;51.482;7.436;2022-08-19T10:26:24;16.73;;;12.57;;
49776;SDS011;35673;51.482;7.436;2022-08-19T10:28:51;14.25;;;11.27;;
49776;SDS011;35673;51.482;7.436;2022-08-19T10:31:21;11.57;;;9.95;;
49776;SDS011;35673;51.482;7.436;2022-08-19T10:33:55;10.82;;;9.55;;
49776;SDS011;35673;51.482;7.436;2022-08-19T10:36:26;11.32;;;10.23;;
49776;SDS011;35673;51.482;7.436;2022-08-19T10:38:55;14.93;;;13.00;;
49776;SDS011;35673;51.482;7.436;2022-08-19T10:41:25;16.35;;;14.57;;
49776;SDS011;35673;51.482;7.436;2022-08-19T10:43:52;18.08;;;15.68;;
49776;SDS011;35673;51.482;7.436;2022-08-19T10:46:22;21.30;;;14.30;;
49776;SDS011;35673;51.482;7.436;2022-08-19T10:48:49;17.00;;;15.15;;
49776;SDS011;35673;51.482;7.436;2022-08-19T10:51:15;15.80;;;14.00;;
49776;SDS011;35673;51.482;7.436;2022-08-19T10:53:59;15.65;;;13.38;;
49776;SDS011;35673;51.482;7.436;2022-08-19T10:56:26;14.07;;;12.43;;
49776;SDS011;35673;51.482;7.436;2022-08-19T10:59:11;18.10;;;14.30;;
49776;SDS011;35673;51.482;7.436;2022-08-19T11:01:39;17.83;;;12.55;;
49776;SDS011;35673;51.482;7.436;2022-08-19T11:04:06;14.57;;;11.55;;
49776;SDS011;35673;51.482;7.436;2022-08-19T11:06:35;11.88;;;10.52;;
49776;SDS011;35673;51.482;7.436;2022-08-19T11:09:03;11.82;;;10.63;;
49776;SDS011;35673;51.482;7.436;2022-08-19T11:11:29;9.38;;;8.18;;
49776;SDS011;35673;51.482;7.436;2022-08-19T11:13:55;14.68;;;8.93;;
49776;SDS011;35673;51.482;7.436;2022-08-19T11:16:24;12.63;;;8.90;;
49776;SDS011;35673;51.482;7.436;2022-08-19T11:18:52;11.68;;;9.77;;
49776;SDS011;35673;51.482;7.436;2022-08-19T11:23:55;12.43;;;10.20;;
49776;SDS011;35673;51.482;7.436;2022-08-19T11:26:22;12.43;;;10.25;;
49776;SDS011;35673;51.482;7.436;2022-08-19T11:28:48;11.65;;;9.48;;
49776;SDS011;35673;51.482;7.436;2022-08-19T11:31:20;9.70;;;8.73;;
49776;SDS011;35673;51.482;7.436;2022-08-19T11:33:47;11.45;;;10.13;;
49776;SDS011;35673;51.482;7.436;2022-08-19T11:36:16;10.05;;;9.05;;
49776;SDS011;35673;51.482;7.436;2022-08-19T11:38:44;12.63;;;9.75;;
49776;SDS011;35673;51.482;7.436;2022-08-19T11:41:11;11.15;;;7.95;;
49776;SDS011;35673;51.482;7.436;2022-08-19T11:43:37;9.85;;;8.45;;
49776;SDS011;35673;51.482;7.436;2022-08-19T11:46:08;8.60;;;7.00;;
49776;SDS011;35673;51.482;7.436;2022-08-19T11:48:36;11.38;;;9.55;;
49776;SDS011;35673;51.482;7.436;2022-08-19T11:51:04;9.18;;;8.23;;
49776;SDS011;35673;51.482;7.436;2022-08-19T11:53:33;11.80;;;8.98;;
49776;SDS011;35673;51.482;7.436;2022-08-19T11:56:00;12.57;;;10.57;;
49776;SDS011;35673;51.482;7.436;2022-08-19T11:58:26;12.02;;;10.93;;
49776;SDS011;35673;51.482;7.436;2022-08-19T12:00:51;13.63;;;11.23;;
49776;SDS011;35673;51.482;7.436;2022-08-19T12:03:17;14.50;;;12.00;;
49776;SDS011;35673;51.482;7.436;2022-08-19T12:05:44;14.60;;;12.57;;
49776;SDS011;35673;51.482;7.436;2022-08-19T12:08:10;14.98;;;12.27;;
49776;SDS011;35673;51.482;7.436;2022-08-19T12:10:37;15.20;;;13.13;;
49776;SDS011;35673;51.482;7.436;2022-08-19T12:13:04;17.35;;;13.20;;
49776;SDS011;35673;51.482;7.436;2022-08-19T12:15:35;17.38;;;15.48;;
49776;SDS011;35673;51.482;7.436;2022-08-19T12:18:01;16.27;;;13.65;;
49776;SDS011;35673;51.482;7.436;2022-08-19T12:20:26;15.23;;;13.82;;
49776;SDS011;35673;51.482;7.436;2022-08-19T12:22:52;15.48;;;13.88;;
49776;SDS011;35673;51.482;7.436;2022-08-19T12:25:17;15.63;;;13.98;;
49776;SDS011;35673;51.482;7.436;2022-08-19T12:27:43;14.77;;;13.27;;
49776;SDS011;35673;51.482;7.436;2022-08-19T12:30:10;14.27;;;12.98;;
49776;SDS011;35673;51.482;7.436;2022-08-19T12:32:37;13.75;;;12.35;;
49776;SDS011;35673;51.482;7.436;2022-08-19T12:35:04;15.30;;;11.48;;
49776;SDS011;35673;51.482;7.436;2022-08-19T12:37:30;12.50;;;11.20;;
49776;SDS011;35673;51.482;7.436;2022-08-19T12:39:57;11.85;;;10.68;;
49776;SDS011;35673;51.482;7.436;2022-08-19T12:42:23;11.45;;;10.38;;
49776;SDS011;35673;51.482;7.436;2022-08-19T12:44:48;12.30;;;11.18;;
49776;SDS011;35673;51.482;7.436;2022-08-19T12:47:16;13.43;;;11.95;;
49776;SDS011;35673;51.482;7.436;2022-08-19T12:49:42;15.30;;;10.65;;
49776;SDS011;35673;51.482;7.436;2022-08-19T12:52:09;12.25;;;11.02;;
49776;SDS011;35673;51.482;7.436;2022-08-19T12:54:35;10.70;;;9.75;;
49776;SDS011;35673;51.482;7.436;2022-08-19T12:57:06;13.82;;;9.82;;
49776;SDS011;35673;51.482;7.436;2022-08-19T12:59:32;11.65;;;10.50;;
49776;SDS011;35673;51.482;7.436;2022-08-19T13:02:06;11.05;;;9.82;;
49776;SDS011;35673;51.482;7.436;2022-08-19T13:04:32;10.77;;;9.68;;
49776;SDS011;35673;51.482;7.436;2022-08-19T13:07:05;13.70;;;10.93;;
49776;SDS011;35673;51.482;7.436;2022-08-19T13:09:32;10.75;;;9.85;;
49776;SDS011;35673;51.482;7.436;2022-08-19T13:11:58;13.93;;;10.07;;
49776;SDS011;35673;51.482;7.436;2022-08-19T13:14:27;17.42;;;10.13;;
49776;SDS011;35673;51.482;7.436;2022-08-19T13:16:55;9.98;;;9.02;;
49776;SDS011;35673;51.482;7.436;2022-08-19T13:19:22;11.23;;;10.13;;
49776;SDS011;35673;51.482;7.436;2022-08-19T13:21:49;12.95;;;9.55;;
49776;SDS011;35673;51.482;7.436;2022-08-19T13:24:15;9.52;;;8.50;;
49776;SDS011;35673;51.482;7.436;2022-08-19T13:26:42;10.13;;;8.23;;
49776;SDS011;35673;51.482;7.436;2022-08-19T13:29:08;10.02;;;7.88;;
49776;SDS011;35673;51.482;7.436;2022-08-19T13:31:52;7.80;;;6.57;;
49776;SDS011;35673;51.482;7.436;2022-08-19T13:34:36;7.70;;;6.45;;
49776;SDS011;35673;51.482;7.436;2022-08-19T13:37:02;6.60;;;5.97;;
49776;SDS011;35673;51.482;7.436;2022-08-19T13:39:29;5.95;;;5.45;;
49776;SDS011;35673;51.482;7.436;2022-08-19T13:41:57;5.30;;;4.82;;
49776;SDS011;35673;51.482;7.436;2022-08-19T13:44:23;5.90;;;5.05;;
49776;SDS011;35673;51.482;7.436;2022-08-19T13:46:49;7.55;;;4.53;;
49776;SDS011;35673;51.482;7.436;2022-08-19T13:49:17;6.80;;;4.75;;
49776;SDS011;35673;51.482;7.436;2022-08-19T13:51:43;5.50;;;4.50;;
49776;SDS011;35673;51.482;7.436;2022-08-19T13:54:10;5.53;;;5.03;;
49776;SDS011;35673;51.482;7.436;2022-08-19T13:56:41;5.20;;;4.75;;
49776;SDS011;35673;51.482;7.436;2022-08-19T13:59:08;6.13;;;4.68;;
49776;SDS011;35673;51.482;7.436;2022-08-19T14:01:34;7.05;;;5.07;;
49776;SDS011;35673;51.482;7.436;2022-08-19T14:04:00;5.25;;;4.75;;
49776;SDS011;35673;51.482;7.436;2022-08-19T14:06:26;5.20;;;4.72;;
49776;SDS011;35673;51.482;7.436;2022-08-19T14:08:51;5.18;;;4.32;;
49776;SDS011;35673;51.482;7.436;2022-08-19T14:11:17;6.78;;;4.85;;
49776;SDS011;35673;51.482;7.436;2022-08-19T14:13:43;4.70;;;4.30;;
49776;SDS011;35673;51.482;7.436;2022-08-19T14:16:10;5.03;;;4.18;;
49776;SDS011;35673;51.482;7.436;2022-08-19T14:18:37;6.45;;;5.85;;
49776;SDS011;35673;51.482;7.436;2022-08-19T14:21:04;5.93;;;5.18;;
49776;SDS011;35673;51.482;7.436;2022-08-19T14:23:30;5.65;;;5.15;;
49776;SDS011;35673;51.482;7.436;2022-08-19T14:26:03;5.40;;;4.88;;
49776;SDS011;35673;51.482;7.436;2022-08-19T14:28:34;5.65;;;5.15;;
49776;SDS011;35673;51.482;7.436;2022-08-19T14:30:59;5.90;;;5.18;;
49776;SDS011;35673;51.482;7.436;2022-08-19T14:33:25;7.70;;;5.13;;
49776;SDS011;35673;51.482;7.436;2022-08-19T14:35:50;5.43;;;4.60;;
49776;SDS011;35673;51.482;7.436;2022-08-19T14:38:17;8.45;;;5.32;;
49776;SDS011;35673;51.482;7.436;2022-08-19T14:40:43;4.95;;;4.55;;
49776;SDS011;35673;51.482;7.436;2022-08-19T14:43:09;6.65;;;4.82;;
49776;SDS011;35673;51.482;7.436;2022-08-19T14:45:36;5.05;;;4.53;;
49776;SDS011;35673;51.482;7.436;2022-08-19T14:48:06;4.57;;;4.18;;
49776;SDS011;35673;51.482;7.436;2022-08-19T14:50:34;4.43;;;4.05;;
49776;SDS011;35673;51.482;7.436;2022-08-19T14:53:03;5.63;;;4.35;;